CHO weather

Charlottesville Albemarle Airport
Charlottesville, Virginia, United States

Public forecast

Using degrees Fahrenheit for public forecast. Weather courtesy of forecast.io.

Current aviation weather report (METAR) for Charlottesville Albemarle Airport

Retrieved 2019/12/08 04:53 UTC (12 minutes ago):

KCHO 080453Z AUTO 00000KT 10SM CLR M02/M07 A3047 RMK AO2 SLP322 T10171067 401001017

Aviation forecast (TAF) for Charlottesville Albemarle Airport

Retrieved 2019-12-08 00:22 UTC (5 hours ago):

TAF KCHO 072320Z 0800/0824 VRB03KT P6SM SKC FM081600 18005KT P6SM FEW250 FM082300 20005KT P6SM SCT150